Chrisney, IN (47611)

11:00 PM CDT on August 22, 2014 (GMT -0500)
RMR - Owensboro | Change Station
CLOSE
Current Station
Personal Weather Station
Location: Owensboro, KY
Elevation: 387 ft
Nearby Weather Stations
Active Advisory: Heat Advisory

Elev 387 ft 37.83 °N, 87.02 °W | Updated 7 minutes ago

Clear
Clear
80.8 °F
Feels Like 87 °F
N
0.0
Wind Variable Wind from ESE
Gusts 0.0 mph

Today
High -- | Low -- °F
--% Chance of Precip.
Yesterday
High -- | Low -- °F
Precip. -- in
6:09 AM 7:31 PM
Waning Crescent, 5% visible
Pressure 29.99 in
Visibility 10.0 miles
Clouds Clear
Heat Index 87 °F
Dew Point 77 °F
Humidity 88%
Rainfall 0.00 in
Snow Depth Not available.
UV 0 out of 12
Pollen 10.20 out of 12
Air Quality Not available.
Flu Activity Not available.
METAR KOWB 230256Z 00000KT 10SM CLR 28/25 A3000 RMK AO2 53013 60000 T02770250 RAB24E34 P0000 SLP153

More Conditions Fewer Conditions

Pressure 29.99 in
Visibility 10.0 miles
Clouds Clear
Heat Index 87 °F
Dew Point 77 °F
Humidity 88%
Rainfall 0.00 in
Snow Depth Not available.
UV 0 out of 12
Pollen 10.20 out of 12
Air Quality Not available.
Flu Activity Not available.
METAR KOWB 230256Z 00000KT 10SM CLR 28/25 A3000 RMK AO2 53013 60000 T02770250 RAB24E34 P0000 SLP153

More Conditions Fewer Conditions

10-Day Weather Forecast

Almanac

Astronomy

Aug. 22, 2014 Rise Set
Actual Time 6:09 AM CDT 7:31 PM CDT
Civil Twilight 5:41 AM CDT 7:59 PM CDT
Nautical Twilight 5:08 AM CDT 8:32 PM CDT
Astronomical Twilight 4:34 AM CDT 9:06 PM CDT
Moon 3:32 AM CDT (8/22) 5:39 PM CDT (8/22)
Length of Visible Light 14h 17m
Length of Day
13h 22m
Tomorrow will be 2m 15s shorter.
Waning Crescent, 5% of the Moon is Illuminated
Aug 23
Waning Crescent
Aug 25
New
Sep 2
First Quarter
Sep 8
Full
Sep 15
Last Quarter

Today's Extremes

State Highs State Lows

Community

WunderPhotos

Upload Photos

1,746,351 photos uploaded!

WunderBlogs® & News

Nearby

Snow Depth

Station Depth Elevation
No new snow has been reported.

Earthquake Activity

City Distance Mag. Time & Date
No recent earthquake activity has been reported nearby.
Minimum magnitude displayed is 2.5.

Coastal Water Temperatures

Place Temperature
No Stations Reporting

Nearby Weather Stations